Time;durP1;ratioP1;P1;durP2;ratioP2;P2;SDS_P1;SDS_P2;PMS_P1;PMS_P2;Temp;Humidity;BMP_temperature;BMP_pressure;BME280_temperature;BME280_humidity;BME280_pressure;Samples;Min_cycle;Max_cycle;Signal;HPM_P1;HPM_P2
2023/04/23 00:02:05;;;;;;;1999.90;999.90;;;12.00;99.90;;;;;;5096721;28;20402;-73
2023/04/23 00:04:33;;;;;;;1999.90;999.90;;;12.00;99.90;;;;;;5096446;28;20557;-74
2023/04/23 00:06:59;;;;;;;1999.90;999.90;;;12.00;99.90;;;;;;5096556;28;20035;-74
2023/04/23 00:09:31;;;;;;;1999.90;999.90;;;12.00;99.90;;;;;;5096854;28;20040;-73
2023/04/23 00:11:58;;;;;;;1999.90;999.90;;;12.00;99.90;;;;;;5078540;28;20894;-74
2023/04/23 00:14:24;;;;;;;1999.90;999.90;;;12.00;99.90;;;;;;5096526;28;20170;-73
2023/04/23 00:16:50;;;;;;;1999.90;999.90;;;12.00;99.90;;;;;;5077384;28;20123;-73
2023/04/23 00:19:16;;;;;;;1999.90;999.90;;;12.00;99.90;;;;;;5096275;28;20183;-74
2023/04/23 00:21:41;;;;;;;1999.90;999.90;;;12.00;99.90;;;;;;5096410;28;20558;-74
2023/04/23 00:24:07;;;;;;;1999.90;999.90;;;12.00;99.90;;;;;;5096568;28;20123;-74
2023/04/23 00:26:32;;;;;;;1999.90;999.90;;;12.00;99.90;;;;;;5077866;28;20110;-73
2023/04/23 00:28:58;;;;;;;1999.90;999.90;;;12.00;99.90;;;;;;5077824;28;20037;-74
2023/04/23 00:31:25;;;;;;;1999.90;999.90;;;12.10;99.90;;;;;;5096479;28;20032;-74
2023/04/23 00:33:51;;;;;;;1999.90;999.90;;;12.10;99.90;;;;;;5095994;28;20039;-74
2023/04/23 00:36:17;;;;;;;1999.90;999.90;;;12.10;99.90;;;;;;5096646;28;20028;-74
2023/04/23 00:38:43;;;;;;;1999.90;999.90;;;12.10;99.90;;;;;;5095840;28;20044;-74
2023/04/23 00:41:08;;;;;;;1999.90;999.90;;;12.10;99.90;;;;;;5096705;28;20494;-72
2023/04/23 00:43:34;;;;;;;1999.90;999.90;;;12.10;99.90;;;;;;5096341;28;20044;-73
2023/04/23 00:46:00;;;;;;;1999.90;999.90;;;12.00;99.90;;;;;;5096403;28;20043;-75
2023/04/23 00:48:27;;;;;;;1999.90;999.90;;;12.10;99.90;;;;;;5096297;28;20028;-72
2023/04/23 00:51:02;;;;;;;1999.90;999.90;;;12.10;99.90;;;;;;5077817;28;20043;-73
2023/04/23 00:53:28;;;;;;;1999.90;999.90;;;12.10;99.90;;;;;;5095785;28;20044;-73
2023/04/23 00:55:54;;;;;;;1999.90;999.90;;;12.20;99.90;;;;;;5095870;28;20040;-73
2023/04/23 00:58:20;;;;;;;1999.90;999.90;;;12.20;99.90;;;;;;5077485;28;20044;-73
2023/04/23 01:00:47;;;;;;;1999.90;999.90;;;12.20;99.90;;;;;;5077081;28;20044;-73
2023/04/23 01:03:15;;;;;;;1999.90;999.90;;;12.20;99.90;;;;;;5095503;28;20029;-73
2023/04/23 01:05:41;;;;;;;1999.90;999.90;;;12.20;99.90;;;;;;5095794;28;20486;-74
2023/04/23 01:08:13;;;;;;;1999.90;999.90;;;12.20;99.90;;;;;;5077274;28;20037;-74
2023/04/23 01:10:39;;;;;;;1999.90;999.90;;;12.20;99.90;;;;;;5096084;28;20841;-74
2023/04/23 01:13:05;;;;;;;1999.90;999.90;;;12.10;99.90;;;;;;5096040;28;20044;-74
2023/04/23 01:15:30;;;;;;;1999.90;999.90;;;12.10;99.90;;;;;;5095254;28;20506;-74
2023/04/23 01:17:57;;;;;;;1999.90;999.90;;;12.00;99.90;;;;;;5095249;28;20119;-74
2023/04/23 01:20:23;;;;;;;1999.90;999.90;;;12.00;99.90;;;;;;5095576;28;20517;-74
2023/04/23 01:22:48;;;;;;;1999.90;999.90;;;12.00;99.90;;;;;;5095718;28;20055;-73
2023/04/23 01:25:14;;;;;;;1999.90;999.90;;;11.90;99.90;;;;;;5095446;28;20040;-74
2023/04/23 01:27:40;;;;;;;1999.90;999.90;;;11.90;99.90;;;;;;5095342;28;20043;-74
2023/04/23 01:30:07;;;;;;;1999.90;999.90;;;11.80;99.90;;;;;;5095448;28;20500;-74
2023/04/23 01:32:34;;;;;;;1999.90;999.90;;;11.80;99.90;;;;;;5095368;28;20518;-73
2023/04/23 01:35:00;;;;;;;1999.90;999.90;;;11.80;99.90;;;;;;5094801;28;20036;-74
2023/04/23 01:37:27;;;;;;;1999.90;999.90;;;11.70;99.90;;;;;;5095532;28;20119;-75
2023/04/23 01:39:53;;;;;;;1999.90;999.90;;;11.60;99.90;;;;;;5095267;28;20849;-75
2023/04/23 01:42:19;;;;;;;1999.90;999.90;;;11.60;99.90;;;;;;5095686;28;20115;-75
2023/04/23 01:44:44;;;;;;;1999.90;999.90;;;11.60;99.90;;;;;;5094712;28;20437;-74
2023/04/23 01:47:10;;;;;;;1999.90;999.90;;;11.60;99.90;;;;;;5076634;28;20075;-74
2023/04/23 01:49:36;;;;;;;1999.90;999.90;;;11.60;99.90;;;;;;5094539;28;20094;-75
2023/04/23 01:52:01;;;;;;;1999.90;999.90;;;11.50;99.90;;;;;;5095454;28;20529;-74
2023/04/23 01:54:27;;;;;;;1999.90;999.90;;;11.50;99.90;;;;;;5094393;28;20036;-74
2023/04/23 01:56:54;;;;;;;1999.90;999.90;;;11.50;99.90;;;;;;5095243;28;20423;-74
2023/04/23 01:59:21;;;;;;;1999.90;999.90;;;11.50;99.90;;;;;;5094530;28;20048;-74
2023/04/23 02:01:47;;;;;;;1999.90;999.90;;;11.50;99.90;;;;;;5094902;28;20020;-74
2023/04/23 02:04:14;;;;;;;1999.90;999.90;;;11.50;99.90;;;;;;5094764;28;20075;-75
2023/04/23 02:06:42;;;;;;;1999.90;999.90;;;11.50;99.90;;;;;;5094799;28;20044;-74
2023/04/23 02:09:07;;;;;;;1999.90;999.90;;;11.50;99.90;;;;;;5094606;28;20518;-75
2023/04/23 02:11:33;;;;;;;1999.90;999.90;;;11.50;99.90;;;;;;5094606;28;20063;-75
2023/04/23 02:14:00;;;;;;;1999.90;999.90;;;11.50;99.90;;;;;;5076258;28;20040;-75
2023/04/23 02:16:27;;;;;;;1999.90;999.90;;;11.50;99.90;;;;;;5094901;28;20043;-75
2023/04/23 02:18:54;;;;;;;1999.90;999.90;;;11.50;99.90;;;;;;5093620;28;20158;-75
2023/04/23 02:21:20;;;;;;;1999.90;999.90;;;11.50;99.90;;;;;;5094110;28;20063;-74
2023/04/23 02:23:45;;;;;;;1999.90;999.90;;;11.40;99.90;;;;;;5094365;28;20509;-75
2023/04/23 02:26:11;;;;;;;1999.90;999.90;;;11.40;99.90;;;;;;5094546;28;20544;-73
2023/04/23 02:28:36;;;;;;;1999.90;999.90;;;11.50;99.90;;;;;;5094372;28;20103;-75
2023/04/23 02:31:02;;;;;;;1999.90;999.90;;;11.50;99.90;;;;;;5094666;28;20118;-75
2023/04/23 02:33:27;;;;;;;1999.90;999.90;;;11.50;99.90;;;;;;5094516;28;20029;-75
2023/04/23 02:35:53;;;;;;;1999.90;999.90;;;11.50;99.90;;;;;;5094453;28;20537;-75
2023/04/23 02:38:19;;;;;;;1999.90;999.90;;;11.40;99.90;;;;;;5094341;28;20032;-75
2023/04/23 02:40:44;;;;;;;1999.90;999.90;;;11.40;99.90;;;;;;5094534;28;20037;-75
2023/04/23 02:43:10;;;;;;;1999.90;999.90;;;11.40;99.90;;;;;;5094332;28;20398;-74
2023/04/23 02:45:35;;;;;;;1999.90;999.90;;;11.40;99.90;;;;;;5094120;28;20051;-75
2023/04/23 02:48:01;;;;;;;1999.90;999.90;;;11.40;99.90;;;;;;5094843;28;20115;-74
2023/04/23 02:50:26;;;;;;;1999.90;999.90;;;11.40;99.90;;;;;;5094371;28;20143;-74
2023/04/23 02:52:52;;;;;;;1999.90;999.90;;;11.40;99.90;;;;;;5094329;28;20032;-75
2023/04/23 02:55:17;;;;;;;1999.90;999.90;;;11.40;99.90;;;;;;5075656;28;20029;-74
2023/04/23 02:57:44;;;;;;;1999.90;999.90;;;11.40;99.90;;;;;;5094161;28;20044;-74
2023/04/23 03:00:11;;;;;;;1999.90;999.90;;;11.40;99.90;;;;;;5075536;28;20506;-74
2023/04/23 03:02:37;;;;;;;1999.90;999.90;;;11.40;99.90;;;;;;5076159;28;20037;-74
2023/04/23 03:05:03;;;;;;;1999.90;999.90;;;11.40;99.90;;;;;;5094051;28;20048;-74
2023/04/23 03:07:28;;;;;;;1999.90;999.90;;;11.40;99.90;;;;;;5075333;28;20068;-75
2023/04/23 03:09:54;;;;;;;1999.90;999.90;;;11.40;99.90;;;;;;5094111;28;20063;-74
2023/04/23 03:12:19;;;;;;;1999.90;999.90;;;11.40;99.90;;;;;;5094306;28;20037;-74
2023/04/23 03:14:45;;;;;;;1999.90;999.90;;;11.40;99.90;;;;;;5094049;28;20402;-73
2023/04/23 03:17:10;;;;;;;1999.90;999.90;;;11.40;99.90;;;;;;5094203;28;20041;-74
2023/04/23 03:19:36;;;;;;;1999.90;999.90;;;11.40;99.90;;;;;;5093666;28;20048;-74
2023/04/23 03:22:04;;;;;;;1999.90;999.90;;;11.30;99.90;;;;;;5093723;28;20028;-74
2023/04/23 03:24:33;;;;;;;1999.90;999.90;;;11.30;99.90;;;;;;5093693;28;20497;-74
2023/04/23 03:26:59;;;;;;;1999.90;999.90;;;11.30;99.90;;;;;;5075741;28;20056;-73
2023/04/23 03:29:25;;;;;;;1999.90;999.90;;;11.30;99.90;;;;;;5075465;28;20123;-74
2023/04/23 03:31:50;;;;;;;1999.90;999.90;;;11.30;99.90;;;;;;5097035;28;20040;-73
2023/04/23 03:34:16;;;;;;;1999.90;999.90;;;11.30;99.90;;;;;;5097019;28;20040;-74
2023/04/23 03:36:43;;;;;;;1999.90;999.90;;;11.30;99.90;;;;;;5078446;28;20066;-73
2023/04/23 03:39:09;;;;;;;1999.90;999.90;;;11.30;99.90;;;;;;5096783;28;20037;-73
2023/04/23 03:41:34;;;;;;;1999.90;999.90;;;11.20;99.90;;;;;;5097535;28;20040;-73
2023/04/23 03:44:00;;;;;;;1999.90;999.90;;;11.20;99.90;;;;;;5097164;28;20735;-74
2023/04/23 03:46:25;;;;;;;1999.90;999.90;;;11.20;99.90;;;;;;5097177;28;20056;-73
2023/04/23 03:48:51;;;;;;;1999.90;999.90;;;11.30;99.90;;;;;;5097511;28;20060;-73
2023/04/23 03:51:16;;;;;;;1999.90;999.90;;;11.30;99.90;;;;;;5097648;28;20111;-74
2023/04/23 03:53:43;;;;;;;1999.90;999.90;;;11.30;99.90;;;;;;5097242;28;20070;-73
2023/04/23 03:56:09;;;;;;;1999.90;999.90;;;11.30;99.90;;;;;;5078611;28;20032;-73
2023/04/23 03:58:34;;;;;;;1999.90;999.90;;;11.30;99.90;;;;;;5096805;28;20040;-74
2023/04/23 04:01:00;;;;;;;1999.90;999.90;;;11.30;99.90;;;;;;5097468;28;20044;-73
2023/04/23 04:03:26;;;;;;;1999.90;999.90;;;11.30;99.90;;;;;;5097839;28;20048;-73
2023/04/23 04:05:51;;;;;;;1999.90;999.90;;;11.30;99.90;;;;;;5077817;28;20036;-73
2023/04/23 04:08:17;;;;;;;1999.90;999.90;;;11.30;99.90;;;;;;5096773;28;20036;-74
2023/04/23 04:10:43;;;;;;;1999.90;999.90;;;11.30;99.90;;;;;;5096389;28;20405;-73
2023/04/23 04:13:08;;;;;;;1999.90;999.90;;;11.30;99.90;;;;;;5097023;28;20067;-73
2023/04/23 04:15:34;;;;;;;1999.90;999.90;;;11.30;99.90;;;;;;5096444;28;20072;-73
2023/04/23 04:17:59;;;;;;;1999.90;999.90;;;11.30;99.90;;;;;;5096521;28;20064;-74
2023/04/23 04:20:27;;;;;;;1999.90;999.90;;;11.30;99.90;;;;;;5078306;28;20067;-73
2023/04/23 04:22:53;;;;;;;1999.90;999.90;;;11.30;99.90;;;;;;5079585;28;20560;-73
2023/04/23 04:25:21;;;;;;;1999.90;999.90;;;11.30;99.90;;;;;;5096877;28;20124;-74
2023/04/23 04:27:46;;;;;;;1999.90;999.90;;;11.30;99.90;;;;;;5096745;28;20032;-74
2023/04/23 04:30:12;;;;;;;1999.90;999.90;;;11.30;99.90;;;;;;5096133;28;20032;-73
2023/04/23 04:32:39;;;;;;;1999.90;999.90;;;11.30;99.90;;;;;;5096756;28;20040;-73
2023/04/23 04:35:07;;;;;;;1999.90;999.90;;;11.30;99.90;;;;;;5096107;28;20071;-74
2023/04/23 04:37:33;;;;;;;1999.90;999.90;;;11.30;99.90;;;;;;5077787;28;20124;-74
2023/04/23 04:40:00;;;;;;;1999.90;999.90;;;11.30;99.90;;;;;;5093601;28;20086;-74
2023/04/23 04:42:26;;;;;;;1999.90;999.90;;;11.30;99.90;;;;;;5096019;28;20235;-74
2023/04/23 04:44:51;;;;;;;1999.90;999.90;;;11.30;99.90;;;;;;5096474;28;20557;-73
2023/04/23 04:47:17;;;;;;;1999.90;999.90;;;11.30;99.90;;;;;;5095826;28;20032;-73
2023/04/23 04:49:43;;;;;;;1999.90;999.90;;;11.30;99.90;;;;;;5077735;28;20036;-73
2023/04/23 04:52:09;;;;;;;1999.90;999.90;;;11.30;99.90;;;;;;5095841;28;20036;-74
2023/04/23 04:54:35;;;;;;;1999.90;999.90;;;11.30;99.90;;;;;;5096133;28;20032;-73
2023/04/23 04:57:01;;;;;;;1999.90;999.90;;;11.30;99.90;;;;;;5096380;28;20440;-73
2023/04/23 04:59:27;;;;;;;1999.90;999.90;;;11.30;99.90;;;;;;5096353;28;20044;-74
2023/04/23 05:01:52;;;;;;;1999.90;999.90;;;11.30;99.90;;;;;;5095917;28;20062;-74
2023/04/23 05:04:18;;;;;;;1999.90;999.90;;;11.30;99.90;;;;;;5096025;28;20032;-74
2023/04/23 05:06:43;;;;;;;1999.90;999.90;;;11.30;99.90;;;;;;5096193;28;20474;-73
2023/04/23 05:09:10;;;;;;;1999.90;999.90;;;11.30;99.90;;;;;;5078073;28;20549;-73
2023/04/23 05:11:36;;;;;;;1999.90;999.90;;;11.30;99.90;;;;;;5096427;28;20028;-73
2023/04/23 05:14:03;;;;;;;1999.90;999.90;;;11.30;99.90;;;;;;5096216;28;20032;-73
2023/04/23 05:16:29;;;;;;;1999.90;999.90;;;11.40;99.90;;;;;;5096350;28;20028;-73
2023/04/23 05:18:54;;;;;;;1999.90;999.90;;;11.40;99.90;;;;;;5077774;28;20032;-73
2023/04/23 05:21:20;;;;;;;1999.90;999.90;;;11.40;99.90;;;;;;5077740;28;20041;-73
2023/04/23 05:23:46;;;;;;;1999.90;999.90;;;11.50;99.90;;;;;;5095988;28;20039;-74
2023/04/23 05:26:11;;;;;;;1999.90;999.90;;;11.60;99.90;;;;;;5095795;28;20040;-74
2023/04/23 05:28:37;;;;;;;1999.90;999.90;;;11.70;99.90;;;;;;5095715;28;20041;-74
2023/04/23 05:31:03;;;;;;;1999.90;999.90;;;11.80;99.90;;;;;;5096167;28;20040;-74
2023/04/23 05:33:28;;;;;;;1999.90;999.90;;;11.80;99.90;;;;;;5095513;28;20478;-74
2023/04/23 05:35:54;;;;;;;1999.90;999.90;;;11.90;99.90;;;;;;5095545;28;20044;-74
2023/04/23 05:38:19;;;;;;;1999.90;999.90;;;11.90;99.90;;;;;;5077167;28;20032;-74
2023/04/23 05:40:45;;;;;;;1999.90;999.90;;;11.90;99.90;;;;;;5096025;28;20170;-74
2023/04/23 05:43:11;;;;;;;1999.90;999.90;;;11.90;99.90;;;;;;5095670;28;20064;-74
2023/04/23 05:45:37;;;;;;;1999.90;999.90;;;11.90;99.90;;;;;;5095596;28;20425;-74
2023/04/23 05:48:02;;;;;;;1999.90;999.90;;;12.00;99.90;;;;;;5094898;28;20067;-74
2023/04/23 05:50:28;;;;;;;1999.90;999.90;;;12.10;99.90;;;;;;5095568;28;20094;-74
2023/04/23 05:52:54;;;;;;;1999.90;999.90;;;12.10;99.90;;;;;;5094231;28;20048;-74
2023/04/23 05:55:20;;;;;;;1999.90;999.90;;;12.10;99.90;;;;;;5095174;28;20045;-74
2023/04/23 05:57:46;;;;;;;1999.90;999.90;;;12.10;99.90;;;;;;5073643;28;20087;-74
2023/04/23 06:00:12;;;;;;;1999.90;999.90;;;12.10;99.90;;;;;;5092194;28;20675;-74
2023/04/23 06:02:38;;;;;;;1999.90;999.90;;;12.10;99.90;;;;;;5076643;28;20041;-74
2023/04/23 06:05:05;;;;;;;1999.90;999.90;;;12.20;99.90;;;;;;5095405;28;20032;-74
2023/04/23 06:07:31;;;;;;;1999.90;999.90;;;12.20;99.90;;;;;;5095898;28;20070;-74
2023/04/23 06:09:57;;;;;;;1999.90;999.90;;;12.30;99.90;;;;;;5095290;28;20081;-74
2023/04/23 06:12:23;;;;;;;1999.90;999.90;;;12.30;99.90;;;;;;5095065;28;20488;-74
2023/04/23 06:14:48;;;;;;;1999.90;999.90;;;12.50;99.90;;;;;;5094419;28;20024;-74
2023/04/23 06:17:14;;;;;;;1999.90;999.90;;;12.40;99.90;;;;;;5076658;28;20033;-74
2023/04/23 06:19:40;;;;;;;1999.90;999.90;;;12.60;99.90;;;;;;5094882;28;20398;-74
2023/04/23 06:22:06;;;;;;;1999.90;999.90;;;12.70;99.90;;;;;;5094378;28;20044;-74
2023/04/23 06:24:32;;;;;;;1999.90;999.90;;;12.80;99.90;;;;;;5094675;28;20028;-74
2023/04/23 06:26:57;;;;;;;1999.90;999.90;;;12.70;99.90;;;;;;5094607;28;20044;-74
2023/04/23 06:29:23;;;;;;;1999.90;999.90;;;12.70;99.90;;;;;;5094813;28;20106;-74
2023/04/23 06:31:48;;;;;;;1999.90;999.90;;;12.70;99.90;;;;;;5094696;28;20037;-74
2023/04/23 06:34:14;;;;;;;1999.90;999.90;;;12.60;99.90;;;;;;5094614;28;20417;-74
2023/04/23 06:36:40;;;;;;;1999.90;999.90;;;12.60;99.90;;;;;;5094496;28;20036;-74
2023/04/23 06:39:05;;;;;;;1999.90;999.90;;;12.60;99.90;;;;;;5094302;28;20040;-74
2023/04/23 06:41:31;;;;;;;1999.90;999.90;;;12.30;99.90;;;;;;5076026;28;20067;-74
2023/04/23 06:43:56;;;;;;;1999.90;999.90;;;12.50;99.90;;;;;;5094240;28;20044;-74
2023/04/23 06:46:22;;;;;;;1999.90;999.90;;;12.60;99.90;;;;;;5093652;28;20111;-74
2023/04/23 06:48:47;;;;;;;1999.90;999.90;;;12.60;99.90;;;;;;5076108;28;20037;-74
2023/04/23 06:51:13;;;;;;;1999.90;999.90;;;12.70;99.90;;;;;;5094369;28;20102;-74
2023/04/23 06:53:39;;;;;;;1999.90;999.90;;;12.60;99.90;;;;;;5093885;28;20461;-74
2023/04/23 06:56:05;;;;;;;1999.90;999.90;;;12.70;99.90;;;;;;5093958;28;20045;-74
2023/04/23 06:58:31;;;;;;;1999.90;999.90;;;12.70;99.90;;;;;;5094107;28;20566;-74
2023/04/23 07:01:02;;;;;;;1999.90;999.90;;;12.70;99.90;;;;;;5075879;28;20047;-75
2023/04/23 07:03:28;;;;;;;1999.90;999.90;;;12.70;99.90;;;;;;5094611;28;20032;-75
2023/04/23 07:05:54;;;;;;;1999.90;999.90;;;12.80;99.90;;;;;;5097173;28;20037;-74
2023/04/23 07:08:20;;;;;;;1999.90;999.90;;;12.90;99.90;;;;;;5097715;28;20040;-74
2023/04/23 07:10:46;;;;;;;1999.90;999.90;;;13.10;99.90;;;;;;5098129;28;20107;-74
2023/04/23 07:13:11;;;;;;;1999.90;999.90;;;13.30;99.90;;;;;;5066935;28;20037;-74
2023/04/23 07:15:37;;;;;;;1999.90;999.90;;;13.50;99.90;;;;;;5093690;28;20080;-76
2023/04/23 07:18:03;;;;;;;1999.90;999.90;;;13.60;99.90;;;;;;5078402;28;20048;-76
2023/04/23 07:20:29;;;;;;;1999.90;999.90;;;13.80;99.90;;;;;;5086517;28;20127;-75
2023/04/23 07:22:54;;;;;;;1999.90;999.90;;;13.80;99.90;;;;;;5097726;28;20131;-74
2023/04/23 07:25:21;;;;;;;1999.90;999.90;;;13.90;99.90;;;;;;5078775;28;20040;-74
2023/04/23 07:27:46;;;;;;;1999.90;999.90;;;13.60;99.90;;;;;;5093173;28;20087;-74
2023/04/23 07:30:13;;;;;;;1999.90;999.90;;;13.50;99.90;;;;;;5084030;28;20141;-74
2023/04/23 07:32:38;;;;;;;1999.90;999.90;;;13.50;99.90;;;;;;5097411;28;20033;-75
2023/04/23 07:35:04;;;;;;;1999.90;999.90;;;13.30;99.90;;;;;;5082098;28;20029;-76
2023/04/23 07:37:30;;;;;;;1999.90;999.90;;;13.30;99.90;;;;;;5097325;28;20060;-74
2023/04/23 07:39:55;;;;;;;1999.90;999.90;;;13.40;99.90;;;;;;5092557;28;20064;-74
2023/04/23 07:42:21;;;;;;;1999.90;999.90;;;13.50;99.90;;;;;;5097211;28;20419;-74
2023/04/23 07:44:46;;;;;;;1999.90;999.90;;;13.70;99.90;;;;;;5096563;28;20056;-74
2023/04/23 07:47:12;;;;;;;1999.90;999.90;;;13.60;99.90;;;;;;5077954;28;20045;-74
2023/04/23 07:49:37;;;;;;;1999.90;999.90;;;13.50;99.90;;;;;;5084172;28;20048;-74
2023/04/23 07:52:03;;;;;;;1999.90;999.90;;;13.40;99.90;;;;;;5096271;28;20028;-75
2023/04/23 07:54:28;;;;;;;1999.90;999.90;;;13.40;99.90;;;;;;5096630;28;20036;-76
2023/04/23 07:56:54;;;;;;;1999.90;999.90;;;13.30;99.90;;;;;;5096700;28;20490;-73
2023/04/23 07:59:19;;;;;;;;;;;13.50;99.90;;;;;;5095617;28;20040;-76
2023/04/23 08:01:45;;;;;;;;;;;13.60;99.90;;;;;;5096574;28;19919;-77
2023/04/23 08:04:10;;;;;;;;;;;13.90;99.90;;;;;;5096088;28;19939;-75
2023/04/23 08:06:36;;;;;;;;;;;14.20;99.90;;;;;;5094515;28;19920;-75
2023/04/23 08:09:05;;;;;;;;;;;14.60;99.90;;;;;;5090043;28;19939;-78
2023/04/23 08:11:31;;;;;;;;;;;15.00;99.90;;;;;;5095221;28;20038;-78
2023/04/23 08:13:56;;;;;;;;;;;15.20;99.90;;;;;;5087812;28;19923;-76
2023/04/23 08:16:22;;;;;;;;;;;15.80;99.90;;;;;;5078028;28;19928;-76
2023/04/23 08:18:47;;;;;;;;;;;16.10;99.90;;;;;;5092690;28;19919;-77
2023/04/23 08:21:13;;;;;;;1999.90;999.90;;;16.00;99.90;;;;;;5065068;28;20141;-76
2023/04/23 08:23:38;;;;;;;;;;;15.90;99.90;;;;;;5057216;28;19943;-75
2023/04/23 08:26:04;;;;;;;1999.90;999.90;;;15.80;99.90;;;;;;5075489;28;20286;-80
2023/04/23 08:28:30;;;;;;;1999.90;999.90;;;15.90;99.90;;;;;;5070235;28;20491;-75
2023/04/23 08:30:55;;;;;;;1999.90;999.90;;;16.00;99.90;;;;;;5096678;28;20076;-74
2023/04/23 08:33:21;;;;;;;1999.90;999.90;;;15.70;99.90;;;;;;5091495;28;20056;-75
2023/04/23 08:35:47;;;;;;;1999.90;999.90;;;15.60;99.90;;;;;;5077285;28;20898;-75
2023/04/23 08:38:12;;;;;;;1999.90;999.90;;;15.40;99.90;;;;;;5082611;28;20506;-79
2023/04/23 08:40:41;;;;;;;1999.90;999.90;;;15.30;99.90;;;;;;5078152;28;20036;-75
2023/04/23 08:43:15;;;;;;;1999.90;999.90;;;15.00;99.90;;;;;;5097255;28;20079;-75
2023/04/23 08:45:42;;;;;;;1999.90;999.90;;;15.00;99.90;;;;;;5096528;28;20119;-76
2023/04/23 08:48:09;;;;;;;1999.90;999.90;;;15.40;99.90;;;;;;5095664;28;20032;-76
2023/04/23 08:50:36;;;;;;;1999.90;999.90;;;15.60;99.90;;;;;;5076356;28;20065;-79
2023/04/23 08:53:05;;;;;;;1999.90;999.90;;;15.80;99.90;;;;;;5072495;28;20115;-76
2023/04/23 08:55:33;;;;;;;1999.90;999.90;;;15.60;99.90;;;;;;5096380;28;20040;-77
2023/04/23 08:57:59;;;;;;;1999.90;999.90;;;15.40;99.90;;;;;;5095921;28;20028;-76
2023/04/23 09:00:25;;;;;;;1999.90;999.90;;;15.30;99.90;;;;;;5077754;28;20043;-76
2023/04/23 09:02:51;;;;;;;1999.90;999.90;;;15.10;99.90;;;;;;5096751;28;20055;-74
2023/04/23 09:05:16;;;;;;;1999.90;999.90;;;14.90;99.90;;;;;;5097412;28;20098;-77
2023/04/23 09:07:43;;;;;;;1999.90;999.90;;;15.00;99.90;;;;;;5080369;28;20039;-76
2023/04/23 09:10:11;;;;;;;1999.90;999.90;;;15.00;99.90;;;;;;5098635;28;20025;-75
2023/04/23 09:12:39;;;;;;;1999.90;999.90;;;15.00;99.90;;;;;;5098980;28;20107;-76
2023/04/23 09:15:09;;;;;;;1999.90;999.90;;;14.80;99.90;;;;;;5079381;28;20075;-76
2023/04/23 09:17:41;;;;;;;1999.90;999.90;;;14.90;99.90;;;;;;5099545;28;20025;-75
2023/04/23 09:20:10;;;;;;;1999.90;999.90;;;15.00;99.90;;;;;;5096829;28;20094;-76
2023/04/23 09:22:52;;;;;;;1999.90;999.90;;;14.90;99.90;;;;;;5096022;28;20017;-75
2023/04/23 09:25:20;;;;;;;1999.90;999.90;;;14.80;99.90;;;;;;5075527;28;20533;-76
2023/04/23 09:27:47;;;;;;;1999.90;999.90;;;14.70;99.90;;;;;;5057639;28;20037;-75
2023/04/23 09:30:13;;;;;;;1999.90;999.90;;;14.80;99.90;;;;;;5093292;28;20098;-74
2023/04/23 09:32:41;;;;;;;1999.90;999.90;;;14.80;99.90;;;;;;5095742;28;20119;-75
2023/04/23 09:35:09;;;;;;;1999.90;999.90;;;14.90;99.90;;;;;;5080154;28;20071;-76
2023/04/23 09:37:36;;;;;;;1999.90;999.90;;;15.00;99.90;;;;;;5096100;28;20024;-76
2023/04/23 09:40:08;;;;;;;1999.90;999.90;;;15.10;99.90;;;;;;5096146;28;20474;-74
2023/04/23 09:42:34;;;;;;;;;;;15.30;99.90;;;;;;5074967;28;20067;-75
2023/04/23 09:45:03;;;;;;;;;;;15.60;99.90;;;;;;5093196;28;20072;-75
2023/04/23 09:47:37;;;;;;;;;;;16.00;99.90;;;;;;5094377;28;20378;-74
2023/04/23 09:50:03;;;;;;;;;;;16.40;99.90;;;;;;5094587;28;19912;-75
2023/04/23 09:52:32;;;;;;;;;;;16.60;99.90;;;;;;5094905;28;19916;-74
2023/04/23 09:55:01;;;;;;;;;;;16.70;99.90;;;;;;5075663;28;20005;-74
2023/04/23 09:57:27;;;;;;;1999.90;999.90;;;16.80;99.90;;;;;;5094700;28;19947;-74
2023/04/23 09:59:56;;;;;;;1999.90;999.90;;;16.80;99.90;;;;;;5076455;28;19966;-72
2023/04/23 10:02:26;;;;;;;;;;;16.80;99.90;;;;;;5093696;28;20042;-71
2023/04/23 10:04:52;;;;;;;1999.90;999.90;;;16.90;99.90;;;;;;5093923;28;20124;-71
2023/04/23 10:07:18;;;;;;;1999.90;999.90;;;17.10;99.90;;;;;;5096660;28;19912;-73
2023/04/23 10:09:43;;;;;;;1999.90;999.90;;;17.20;99.90;;;;;;5095191;28;20032;-72
2023/04/23 10:12:10;;;;;;;1999.90;999.90;;;17.10;99.90;;;;;;5095055;28;20037;-70
2023/04/23 10:14:37;;;;;;;1999.90;999.90;;;17.10;99.90;;;;;;5094773;28;20473;-71
2023/04/23 10:17:03;;;;;;;1999.90;999.90;;;17.00;99.90;;;;;;5094668;28;20040;-70
2023/04/23 10:19:31;;;;;;;1999.90;999.90;;;16.90;99.90;;;;;;5095042;28;20743;-70
2023/04/23 10:22:06;;;;;;;1999.90;999.90;;;16.90;99.90;;;;;;5094716;28;20029;-71
2023/04/23 10:24:34;;;;;;;1999.90;999.90;;;17.00;99.90;;;;;;5094449;28;20032;-71
2023/04/23 10:27:01;;;;;;;;;;;17.40;99.90;;;;;;5093259;28;20029;-70
2023/04/23 10:29:28;;;;;;;;;;;18.00;99.90;;;;;;5093897;28;19916;-72
2023/04/23 10:31:59;;;;;;;1999.90;999.90;;;18.30;99.90;;;;;;5076230;28;19922;-73
2023/04/23 10:34:26;;;;;;;1999.90;999.90;;;18.10;99.90;;;;;;5076180;28;20498;-72
2023/04/23 10:36:52;;;;;;;;;;;17.80;99.90;;;;;;5093753;28;20121;-72
2023/04/23 10:39:25;;;;;;;1999.90;999.90;;;17.90;99.90;;;;;;5093760;28;20537;-73
2023/04/23 10:41:53;;;;;;;1999.90;999.90;;;18.10;99.90;;;;;;5076559;28;20039;-72
2023/04/23 10:44:22;;;;;;;1999.90;999.90;;;18.00;99.90;;;;;;5093954;28;20086;-73
2023/04/23 10:46:56;;;;;;;1999.90;999.90;;;18.30;99.90;;;;;;5093687;28;20489;-75
2023/04/23 10:49:22;;;;;;;;;;;18.10;99.90;;;;;;5093841;28;20046;-74
2023/04/23 10:51:48;;;;;;;1999.90;999.90;;;18.30;99.90;;;;;;5094780;28;20518;-74
2023/04/23 10:54:15;;;;;;;1999.90;999.90;;;18.70;99.90;;;;;;5092975;28;20036;-74
2023/04/23 10:56:41;;;;;;;1999.90;999.90;;;19.10;99.90;;;;;;5093469;28;20041;-74
2023/04/23 10:59:18;;;;;;;1999.90;999.90;;;19.40;99.90;;;;;;5094128;28;20530;-73
2023/04/23 11:01:51;;;;;;;1999.90;999.90;;;19.10;99.90;;;;;;5067955;28;20045;-73
2023/04/23 11:04:24;;;;;;;;;;;19.70;99.90;;;;;;5079149;28;20033;-75
2023/04/23 11:06:50;;;;;;;;;;;20.40;99.90;;;;;;5072745;28;19913;-74
2023/04/23 11:09:29;;;;;;;;;;;20.40;99.90;;;;;;5089018;28;20555;-72
2023/04/23 11:11:56;;;;;;;;;;;19.50;99.90;;;;;;5073105;28;19912;-73
2023/04/23 11:14:37;;;;;;;;;;;19.70;99.90;;;;;;5080613;28;20123;-73
2023/04/23 11:17:04;;;;;;;;;;;19.70;97.10;;;;;;5092190;28;20064;-73
2023/04/23 11:19:30;;;;;;;;;;;20.40;95.80;;;;;;5058179;28;20120;-73
2023/04/23 11:22:02;;;;;;;;;;;20.60;94.60;;;;;;5085994;28;20596;-73
2023/04/23 11:24:31;;;;;;;;;;;20.60;93.40;;;;;;5075191;28;19995;-73
2023/04/23 11:26:57;;;;;;;;;;;21.10;92.20;;;;;;5090646;28;19916;-73
2023/04/23 11:29:24;;;;;;;;;;;20.50;92.90;;;;;;5092504;28;19951;-73
2023/04/23 11:31:50;;;;;;;;;;;20.60;91.20;;;;;;5092798;28;20083;-73
2023/04/23 11:34:16;;;;;;;;;;;20.80;90.20;;;;;;5074224;28;20472;-72
2023/04/23 11:36:41;;;;;;;;;;;20.80;91.80;;;;;;5090943;28;19920;-72
2023/04/23 11:39:09;;;;;;;;;;;21.00;91.70;;;;;;5072885;28;19948;-73
2023/04/23 11:41:35;;;;;;;;;;;21.70;89.10;;;;;;5074693;28;19920;-76
2023/04/23 11:44:00;;;;;;;;;;;22.30;89.20;;;;;;5092635;28;19917;-73
2023/04/23 11:46:26;;;;;;;;;;;22.70;84.10;;;;;;5092226;28;19916;-74
2023/04/23 11:48:51;;;;;;;;;;;23.10;82.70;;;;;;5093297;28;20032;-74
2023/04/23 11:51:17;;;;;;;;;;;23.00;84.40;;;;;;5075138;28;20091;-75
2023/04/23 11:53:48;;;;;;;;;;;22.80;81.90;;;;;;5088541;28;20057;-73
2023/04/23 11:56:17;;;;;;;;;;;21.50;87.50;;;;;;5075526;28;19946;-73
2023/04/23 11:58:42;;;;;;;;;;;21.30;85.00;;;;;;5056945;28;20046;-73
2023/04/23 12:01:11;;;;;;;;;;;21.50;86.00;;;;;;5075678;28;19916;-75
2023/04/23 12:03:37;;;;;;;;;;;21.70;85.70;;;;;;5057955;28;19948;-74
2023/04/23 12:06:02;;;;;;;;;;;21.80;89.60;;;;;;5075609;28;19936;-74
2023/04/23 12:08:31;;;;;;;;;;;22.00;85.50;;;;;;5057542;28;19939;-75
2023/04/23 12:11:00;;;;;;;;;;;22.10;84.70;;;;;;5075630;28;20040;-74
2023/04/23 12:13:28;;;;;;;;;;;22.40;82.10;;;;;;5057642;28;20050;-79
2023/04/23 12:15:55;;;;;;;;;;;22.50;81.10;;;;;;5057929;28;20505;-72
2023/04/23 12:18:27;;;;;;;;;;;22.30;78.30;;;;;;5060202;28;20109;-75